createdAt,value
2022-08-10T00:01:54.321Z,2.30
2022-08-10T00:04:23.589Z,2.10
2022-08-10T00:06:53.517Z,2.08
2022-08-10T00:09:21.891Z,2.20
2022-08-10T00:11:49.503Z,2.30
2022-08-10T00:14:17.304Z,2.13
2022-08-10T00:16:45.143Z,1.98
2022-08-10T00:19:12.545Z,2.15
2022-08-10T00:21:44.029Z,1.73
2022-08-10T00:24:11.322Z,1.90
2022-08-10T00:27:50.160Z,1.80
2022-08-10T00:29:25.990Z,1.70
2022-08-10T00:31:57.794Z,1.65
2022-08-10T00:34:31.932Z,1.77
2022-08-10T00:37:00.505Z,1.73
2022-08-10T00:39:28.791Z,1.80
2022-08-10T00:42:07.680Z,1.75
2022-08-10T00:44:45.266Z,1.95
2022-08-10T00:47:36.287Z,1.90
2022-08-10T00:50:01.725Z,1.58
2022-08-10T00:52:30.325Z,2.05
2022-08-10T00:55:02.915Z,1.90
2022-08-10T00:57:31.319Z,1.73
2022-08-10T01:00:00.379Z,1.75
2022-08-10T01:02:30.391Z,1.83
2022-08-10T01:05:01.640Z,1.70
2022-08-10T01:07:56.686Z,1.60
2022-08-10T01:10:53.671Z,2.00
2022-08-10T01:14:06.427Z,1.67
2022-08-10T01:16:41.547Z,1.70
2022-08-10T01:19:38.454Z,1.55
2022-08-10T01:22:24.046Z,1.95
2022-08-10T01:25:02.773Z,1.80
2022-08-10T01:28:00.711Z,1.50
2022-08-10T01:30:31.746Z,1.67
2022-08-10T01:33:12.384Z,1.70
2022-08-10T01:35:54.340Z,1.50
2022-08-10T01:38:46.023Z,1.58
2022-08-10T01:41:26.745Z,1.48
2022-08-10T01:44:03.897Z,1.70
2022-08-10T01:46:33.740Z,1.50
2022-08-10T01:49:05.162Z,1.40
2022-08-10T01:51:39.337Z,1.65
2022-08-10T01:54:13.150Z,1.63
2022-08-10T01:56:43.994Z,1.52
2022-08-10T01:59:19.993Z,1.70
2022-08-10T02:02:03.950Z,1.38
2022-08-10T02:04:34.551Z,1.80
2022-08-10T02:07:02.950Z,1.50
2022-08-10T02:09:34.439Z,1.67
2022-08-10T02:12:08.589Z,1.60
2022-08-10T02:14:51.059Z,1.55
2022-08-10T02:17:58.664Z,1.55
2022-08-10T02:20:15.718Z,1.60
2022-08-10T02:22:45.779Z,1.42
2022-08-10T02:25:40.959Z,1.65
2022-08-10T02:28:05.204Z,1.58
2022-08-10T02:30:33.993Z,1.50
2022-08-10T02:33:02.195Z,1.80
2022-08-10T02:35:31.502Z,1.70
2022-08-10T02:38:14.454Z,1.52
2022-08-10T02:45:16.070Z,1.63
2022-08-10T02:45:23.751Z,1.83
2022-08-10T02:46:32.236Z,1.73
2022-08-10T02:49:05.475Z,1.70
2022-08-10T02:52:07.051Z,1.80
2022-08-10T02:54:37.489Z,1.70
2022-08-10T02:57:20.759Z,1.70
2022-08-10T02:59:54.532Z,1.65
2022-08-10T03:02:43.862Z,1.90
2022-08-10T03:05:16.169Z,1.60
2022-08-10T03:07:45.127Z,1.90
2022-08-10T03:10:31.180Z,2.10
2022-08-10T03:13:01.750Z,2.08
2022-08-10T03:15:33.831Z,1.77
2022-08-10T03:18:03.271Z,1.90
2022-08-10T03:20:39.589Z,2.15
2022-08-10T03:23:15.145Z,2.20
2022-08-10T03:25:53.565Z,1.63
2022-08-10T03:28:28.387Z,2.03
2022-08-10T03:30:57.326Z,2.00
2022-08-10T03:33:28.611Z,1.83
2022-08-10T03:36:43.507Z,2.03
2022-08-10T03:38:48.793Z,1.98
2022-08-10T03:41:18.618Z,1.92
2022-08-10T03:43:49.748Z,1.90
2022-08-10T03:46:21.403Z,1.88
2022-08-10T03:48:52.771Z,2.00
2022-08-10T03:51:20.685Z,3.55
2022-08-10T03:54:03.518Z,2.40
2022-08-10T03:56:36.636Z,2.40
2022-08-10T03:59:05.581Z,1.92
2022-08-10T04:02:44.075Z,2.10
2022-08-10T04:04:24.744Z,2.17
2022-08-10T04:06:55.889Z,2.60
2022-08-10T04:09:43.061Z,2.45
2022-08-10T04:12:20.165Z,2.63
2022-08-10T04:14:51.327Z,2.45
2022-08-10T04:18:04.650Z,2.42
2022-08-10T04:20:26.319Z,2.60
2022-08-10T04:23:02.205Z,2.47
2022-08-10T04:25:30.701Z,2.35
2022-08-10T04:27:58.960Z,2.60
2022-08-10T04:30:27.873Z,2.67
2022-08-10T04:32:57.375Z,2.60
2022-08-10T04:35:26.955Z,2.47
2022-08-10T04:37:57.116Z,2.40
2022-08-10T04:40:30.211Z,2.25
2022-08-10T04:43:12.439Z,2.42
2022-08-10T04:45:49.613Z,2.67
2022-08-10T04:48:43.092Z,2.45
2022-08-10T04:51:10.766Z,2.30
2022-08-10T04:54:04.596Z,2.88
2022-08-10T04:56:32.135Z,2.38
2022-08-10T04:59:00.756Z,2.58
2022-08-10T05:02:12.465Z,3.03
2022-08-10T05:04:37.152Z,2.63
2022-08-10T05:07:09.417Z,2.58
2022-08-10T05:10:01.176Z,2.40
2022-08-10T05:12:25.978Z,2.53
2022-08-10T05:14:54.519Z,3.17
2022-08-10T05:17:22.867Z,2.60
2022-08-10T05:20:04.364Z,2.72
2022-08-10T05:22:46.229Z,2.70
2022-08-10T05:25:15.457Z,2.80
2022-08-10T05:27:45.776Z,2.80
2022-08-10T05:30:18.044Z,2.78
2022-08-10T05:32:58.306Z,2.70
2022-08-10T05:35:29.132Z,2.45
2022-08-10T05:38:17.722Z,2.70
2022-08-10T05:40:46.644Z,2.92
2022-08-10T05:43:21.816Z,2.78
2022-08-10T05:46:19.014Z,2.63
2022-08-10T05:48:54.562Z,2.60
2022-08-10T05:51:26.969Z,2.88
2022-08-10T05:54:04.211Z,2.70
2022-08-10T05:56:57.071Z,2.72
2022-08-10T06:00:33.384Z,2.78
2022-08-10T06:02:33.115Z,2.80
2022-08-10T06:05:00.069Z,2.70
2022-08-10T06:07:27.936Z,3.10
2022-08-10T06:10:10.150Z,2.75
2022-08-10T06:12:54.211Z,2.90
2022-08-10T06:15:50.626Z,2.65
2022-08-10T06:18:22.321Z,2.90
2022-08-10T06:20:51.128Z,2.78
2022-08-10T06:23:19.136Z,3.13
2022-08-10T06:26:08.786Z,3.50
2022-08-10T06:28:37.862Z,2.90
2022-08-10T06:31:06.423Z,2.95
2022-08-10T06:33:35.468Z,3.28
2022-08-10T06:36:04.194Z,2.65
2022-08-10T06:38:34.479Z,2.75
2022-08-10T06:41:03.560Z,3.03
2022-08-10T06:43:31.726Z,2.67
2022-08-10T06:46:07.206Z,2.72
2022-08-10T06:48:42.643Z,2.40
2022-08-10T06:51:15.161Z,2.58
2022-08-10T06:53:53.727Z,3.03
2022-08-10T06:56:37.650Z,2.55
2022-08-10T07:01:36.761Z,2.30
2022-08-10T07:04:16.254Z,2.47
2022-08-10T07:07:02.849Z,2.63
2022-08-10T07:09:31.529Z,2.80
2022-08-10T07:12:07.796Z,2.70
2022-08-10T07:14:44.435Z,2.97
2022-08-10T07:17:15.235Z,2.75
2022-08-10T07:19:49.750Z,2.55
2022-08-10T07:23:08.348Z,2.50
2022-08-10T07:25:07.927Z,2.50
2022-08-10T07:27:40.704Z,2.30
2022-08-10T07:30:25.148Z,2.50
2022-08-10T07:32:53.465Z,2.40
2022-08-10T07:35:22.325Z,2.70
2022-08-10T07:37:52.070Z,2.63
2022-08-10T07:40:21.262Z,2.13
2022-08-10T07:42:51.734Z,2.63
2022-08-10T07:45:19.609Z,2.75
2022-08-10T07:47:53.323Z,2.40
2022-08-10T07:50:23.098Z,2.40
2022-08-10T07:52:52.575Z,2.50
2022-08-10T07:56:07.748Z,2.30
2022-08-10T07:58:09.748Z,2.45
2022-08-10T08:00:38.165Z,2.90
2022-08-10T08:03:08.380Z,2.30
2022-08-10T08:05:58.906Z,2.28
2022-08-10T08:08:25.091Z,2.97
2022-08-10T08:10:56.755Z,2.40
2022-08-10T08:13:25.615Z,2.97
2022-08-10T08:16:20.785Z,2.80
2022-08-10T08:18:54.153Z,2.20
2022-08-10T08:24:10.409Z,2.75
2022-08-10T08:24:33.162Z,2.63
2022-08-10T08:27:03.705Z,2.88
2022-08-10T08:29:35.946Z,2.22
2022-08-10T08:32:04.587Z,2.40
2022-08-10T08:34:33.245Z,2.53
2022-08-10T08:37:01.695Z,2.50
2022-08-10T08:39:31.876Z,2.40
2022-08-10T08:42:18.327Z,2.35
2022-08-10T08:44:46.226Z,2.40
2022-08-10T08:48:02.051Z,2.65
2022-08-10T08:50:12.204Z,2.13
2022-08-10T08:53:21.468Z,2.60
2022-08-10T08:56:05.122Z,2.42
2022-08-10T08:58:58.706Z,2.30
2022-08-10T09:01:42.242Z,2.38
2022-08-10T09:04:25.026Z,2.40
2022-08-10T09:06:52.819Z,2.83
2022-08-10T09:09:32.540Z,2.70
2022-08-10T09:12:02.789Z,2.40
2022-08-10T09:14:30.986Z,2.55
2022-08-10T09:17:10.676Z,2.50
2022-08-10T09:19:38.413Z,3.00
2022-08-10T09:22:22.742Z,2.92
2022-08-10T09:24:58.822Z,2.60
2022-08-10T09:27:49.389Z,2.78
2022-08-10T09:30:19.656Z,2.28
2022-08-10T09:36:24.245Z,2.80
2022-08-10T09:36:25.906Z,2.72
2022-08-10T09:38:53.623Z,2.60
2022-08-10T09:41:34.406Z,2.50
2022-08-10T09:44:02.326Z,2.72
2022-08-10T09:46:40.938Z,2.55
2022-08-10T09:49:25.904Z,2.65
2022-08-10T09:52:10.924Z,2.80
2022-08-10T09:54:38.772Z,2.13
2022-08-10T09:57:44.487Z,2.60
2022-08-10T10:00:09.403Z,2.53
2022-08-10T10:02:43.275Z,2.78
2022-08-10T10:05:17.277Z,2.05
2022-08-10T10:07:47.071Z,2.17
2022-08-10T10:10:17.831Z,2.10
2022-08-10T10:12:54.809Z,2.15
2022-08-10T10:15:41.523Z,2.33
2022-08-10T10:18:18.553Z,1.92
2022-08-10T10:20:54.020Z,1.95
2022-08-10T10:23:30.492Z,2.10
2022-08-10T10:26:08.491Z,2.10
2022-08-10T10:29:19.697Z,2.05
2022-08-10T10:31:32.053Z,2.35
2022-08-10T10:34:02.817Z,2.03
2022-08-10T10:36:30.887Z,2.10
2022-08-10T10:38:59.714Z,2.08
2022-08-10T10:41:57.369Z,2.30
2022-08-10T10:44:42.342Z,2.33
2022-08-10T10:47:28.662Z,2.22
2022-08-10T10:49:59.834Z,2.15
2022-08-10T10:52:40.161Z,2.00
2022-08-10T10:55:17.098Z,2.40
2022-08-10T10:58:03.392Z,2.15
2022-08-10T11:00:37.985Z,2.20
2022-08-10T11:03:08.934Z,2.45
2022-08-10T11:05:43.906Z,2.22
2022-08-10T11:08:14.747Z,2.10
2022-08-10T11:11:01.962Z,2.40
2022-08-10T11:14:24.552Z,2.97
2022-08-10T11:16:43.422Z,2.20
2022-08-10T11:20:01.549Z,2.58
2022-08-10T11:22:17.468Z,2.17
2022-08-10T11:24:50.469Z,2.60
2022-08-10T11:27:33.594Z,2.60
2022-08-10T11:30:07.645Z,2.70
2022-08-10T11:33:04.420Z,2.20
2022-08-10T11:35:35.427Z,2.10
2022-08-10T11:38:31.040Z,2.60
2022-08-10T11:42:06.720Z,2.58
2022-08-10T11:44:25.846Z,2.67
2022-08-10T11:47:06.158Z,2.55
2022-08-10T11:49:38.773Z,2.40
2022-08-10T11:52:25.463Z,2.83
2022-08-10T11:54:54.906Z,2.45
2022-08-10T11:57:53.354Z,2.10
2022-08-10T12:00:17.403Z,2.25
2022-08-10T12:02:53.507Z,2.75
2022-08-10T12:05:52.542Z,2.22
2022-08-10T12:10:02.394Z,2.70
2022-08-10T12:11:11.422Z,3.33
2022-08-10T12:14:04.274Z,2.38
2022-08-10T12:16:33.885Z,2.42
2022-08-10T12:19:14.682Z,2.20
2022-08-10T12:21:46.064Z,2.50
2022-08-10T12:24:32.328Z,2.83
2022-08-10T12:27:02.973Z,2.40
2022-08-10T12:29:49.422Z,2.40
2022-08-10T12:32:28.026Z,2.38
2022-08-10T12:35:01.776Z,2.50
2022-08-10T12:37:38.272Z,2.25
2022-08-10T12:40:34.394Z,2.60
2022-08-10T12:44:06.331Z,2.67
2022-08-10T12:46:20.292Z,2.72
2022-08-10T12:49:03.177Z,2.50
2022-08-10T12:51:32.522Z,2.78
2022-08-10T12:54:13.901Z,2.88
2022-08-10T12:56:43.666Z,2.88
2022-08-10T12:59:12.473Z,2.78
2022-08-10T13:02:09.715Z,2.60
2022-08-10T13:04:33.653Z,2.35
2022-08-10T13:07:02.083Z,2.90
2022-08-10T13:09:30.258Z,2.90
2022-08-10T13:12:35.191Z,2.35
2022-08-10T13:15:45.225Z,2.80
2022-08-10T13:18:00.359Z,2.58
2022-08-10T13:20:38.739Z,2.47
2022-08-10T13:23:18.161Z,2.65
2022-08-10T13:25:46.626Z,2.58
2022-08-10T13:28:36.484Z,2.60
2022-08-10T13:31:06.233Z,2.78
2022-08-10T13:34:41.705Z,2.90
2022-08-10T13:36:25.443Z,2.78
2022-08-10T13:38:56.277Z,2.70
2022-08-10T13:41:29.357Z,2.60
2022-08-10T13:43:59.042Z,2.90
2022-08-10T13:46:26.950Z,2.38
2022-08-10T13:48:55.337Z,2.47
2022-08-10T13:51:53.860Z,2.40
2022-08-10T13:54:14.325Z,2.60
2022-08-10T13:56:44.302Z,2.72
2022-08-10T13:59:16.157Z,2.33
2022-08-10T14:01:49.328Z,2.63
2022-08-10T14:04:18.077Z,2.47
2022-08-10T14:06:52.322Z,2.53
2022-08-10T14:09:24.674Z,2.60
2022-08-10T14:11:53.342Z,2.55
2022-08-10T14:14:21.790Z,2.80
2022-08-10T14:16:50.350Z,2.80
2022-08-10T14:19:23.381Z,2.67
2022-08-10T14:21:51.310Z,2.53
2022-08-10T14:24:23.352Z,2.40
2022-08-10T14:26:52.649Z,2.65
2022-08-10T14:29:22.189Z,2.58
2022-08-10T14:32:01.187Z,2.60
2022-08-10T14:36:15.134Z,2.72
2022-08-10T14:37:23.774Z,2.50
2022-08-10T14:39:56.563Z,2.70
2022-08-10T14:42:28.975Z,2.95
2022-08-10T14:45:03.759Z,2.35
2022-08-10T14:47:55.944Z,2.67
2022-08-10T14:50:32.612Z,2.72
2022-08-10T14:53:05.465Z,2.70
2022-08-10T14:55:59.180Z,2.60
2022-08-10T14:58:29.728Z,2.50
2022-08-10T15:00:57.738Z,2.88
2022-08-10T15:03:59.091Z,2.70
2022-08-10T15:06:18.463Z,2.45
2022-08-10T15:08:47.703Z,2.28
2022-08-10T15:12:15.901Z,2.83
2022-08-10T15:14:29.404Z,2.42
2022-08-10T15:16:57.019Z,2.90
2022-08-10T15:20:03.460Z,2.60
2022-08-10T15:22:38.960Z,2.50
2022-08-10T15:25:17.790Z,2.60
2022-08-10T15:27:54.432Z,2.50
2022-08-10T15:30:30.988Z,2.28
2022-08-10T15:33:21.718Z,2.35
2022-08-10T15:36:26.017Z,2.20
2022-08-10T15:39:01.290Z,2.30
2022-08-10T15:41:58.916Z,2.13
2022-08-10T15:44:38.722Z,1.98
2022-08-10T15:47:09.289Z,2.00
2022-08-10T15:49:46.339Z,2.13
2022-08-10T15:52:39.653Z,2.10
2022-08-10T15:55:41.796Z,1.90
2022-08-10T15:58:39.358Z,1.70
2022-08-10T16:02:14.243Z,1.80
2022-08-10T16:04:08.703Z,1.80
2022-08-10T16:06:40.900Z,2.55
2022-08-10T16:10:24.956Z,2.30
2022-08-10T16:12:29.182Z,3.30
2022-08-10T16:15:00.489Z,3.10
2022-08-10T16:17:29.014Z,2.00
2022-08-10T16:19:58.970Z,1.90
2022-08-10T16:22:34.833Z,1.77
2022-08-10T16:25:12.341Z,1.80
2022-08-10T16:27:40.208Z,2.00
2022-08-10T16:30:08.326Z,2.28
2022-08-10T16:32:36.688Z,1.75
2022-08-10T16:35:09.382Z,2.28
2022-08-10T16:37:57.366Z,2.20
2022-08-10T16:40:27.810Z,1.98
2022-08-10T16:42:57.977Z,3.15
2022-08-10T16:45:33.947Z,2.88
2022-08-10T16:48:02.274Z,2.65
2022-08-10T16:50:31.730Z,2.20
2022-08-10T16:53:02.337Z,2.10
2022-08-10T16:55:48.195Z,2.15
2022-08-10T16:58:18.768Z,1.52
2022-08-10T17:00:47.449Z,1.95
2022-08-10T17:03:22.514Z,1.83
2022-08-10T17:06:10.686Z,1.77
2022-08-10T17:08:48.554Z,1.90
2022-08-10T17:11:17.691Z,2.00
2022-08-10T17:13:45.755Z,1.55
2022-08-10T17:16:14.670Z,2.00
2022-08-10T17:18:46.643Z,2.65
2022-08-10T17:21:18.924Z,1.85
2022-08-10T17:23:47.599Z,2.00
2022-08-10T17:26:16.690Z,1.63
2022-08-10T17:28:50.547Z,1.95
2022-08-10T17:31:39.685Z,1.63
2022-08-10T17:34:15.873Z,1.90
2022-08-10T17:36:45.828Z,1.70
2022-08-10T17:39:15.307Z,1.60
2022-08-10T17:41:45.801Z,1.88
2022-08-10T17:44:13.992Z,1.60
2022-08-10T17:46:44.877Z,1.80
2022-08-10T17:49:14.405Z,1.98
2022-08-10T17:51:42.802Z,1.77
2022-08-10T17:54:30.741Z,2.70
2022-08-10T17:57:00.206Z,2.60
2022-08-10T17:59:29.046Z,2.85
2022-08-10T18:02:10.257Z,2.50
2022-08-10T18:04:41.847Z,3.05
2022-08-10T18:07:11.387Z,3.30
2022-08-10T18:10:05.422Z,2.97
2022-08-10T18:12:38.961Z,2.50
2022-08-10T18:15:11.923Z,1.90
2022-08-10T18:17:41.634Z,3.33
2022-08-10T18:20:11.464Z,3.97
2022-08-10T18:22:43.732Z,3.15
2022-08-10T18:25:17.670Z,3.10
2022-08-10T18:28:01.205Z,4.43
2022-08-10T18:30:36.409Z,2.65
2022-08-10T18:33:05.441Z,2.40
2022-08-10T18:35:34.850Z,3.47
2022-08-10T18:38:03.943Z,2.53
2022-08-10T18:40:35.470Z,3.13
2022-08-10T18:44:02.790Z,2.92
2022-08-10T18:45:57.085Z,2.50
2022-08-10T18:48:27.909Z,2.90
2022-08-10T18:50:57.493Z,2.50
2022-08-10T18:53:34.016Z,2.60
2022-08-10T18:56:13.274Z,2.38
2022-08-10T18:58:44.670Z,2.70
2022-08-10T19:01:17.192Z,1.98
2022-08-10T19:03:53.802Z,2.10
2022-08-10T19:06:40.956Z,2.33
2022-08-10T19:09:46.312Z,2.63
2022-08-10T19:12:33.364Z,2.15
2022-08-10T19:15:12.473Z,2.35
2022-08-10T19:18:06.990Z,2.08
2022-08-10T19:20:55.414Z,2.38
2022-08-10T19:23:43.365Z,1.77
2022-08-10T19:26:44.861Z,2.22
2022-08-10T19:30:09.983Z,2.17
2022-08-10T19:32:22.095Z,2.17
2022-08-10T19:35:08.236Z,2.25
2022-08-10T19:38:00.287Z,2.20
2022-08-10T19:40:44.694Z,2.20
2022-08-10T19:43:14.380Z,2.05
2022-08-10T19:46:05.426Z,2.28
2022-08-10T19:48:45.508Z,2.13
2022-08-10T19:51:23.815Z,2.20
2022-08-10T19:53:54.410Z,2.20
2022-08-10T19:56:34.875Z,2.38
2022-08-10T19:59:02.815Z,2.60
2022-08-10T20:01:54.546Z,2.88
2022-08-10T20:04:33.150Z,2.42
2022-08-10T20:07:06.432Z,2.28
2022-08-10T20:09:37.286Z,2.93
2022-08-10T20:12:09.269Z,2.50
2022-08-10T20:14:53.034Z,2.50
2022-08-10T20:17:20.753Z,2.40
2022-08-10T20:19:59.276Z,2.42
2022-08-10T20:22:29.580Z,2.67
2022-08-10T20:25:01.685Z,3.25
2022-08-10T20:27:57.855Z,2.60
2022-08-10T20:30:28.019Z,2.38
2022-08-10T20:33:09.993Z,2.60
2022-08-10T20:35:43.570Z,2.53
2022-08-10T20:38:17.130Z,2.88
2022-08-10T20:41:02.383Z,2.40
2022-08-10T20:43:41.641Z,2.80
2022-08-10T20:46:12.071Z,2.40
2022-08-10T20:48:44.904Z,2.95
2022-08-10T20:51:15.589Z,2.50
2022-08-10T20:53:46.201Z,2.47
2022-08-10T20:56:22.447Z,3.08
2022-08-10T20:59:09.260Z,2.60
2022-08-10T21:02:07.214Z,2.45
2022-08-10T21:04:44.155Z,2.78
2022-08-10T21:07:57.718Z,2.63
2022-08-10T21:10:29.113Z,2.85
2022-08-10T21:13:23.139Z,2.50
2022-08-10T21:16:09.764Z,2.50
2022-08-10T21:18:46.213Z,2.70
2022-08-10T21:21:41.919Z,2.70
2022-08-10T21:24:12.815Z,2.70
2022-08-10T21:26:49.478Z,3.03
2022-08-10T21:29:21.315Z,2.90
2022-08-10T21:31:52.035Z,3.00
2022-08-10T21:34:19.583Z,2.60
2022-08-10T21:37:00.522Z,2.92
2022-08-10T21:39:44.897Z,2.58
2022-08-10T21:42:53.404Z,2.60
2022-08-10T21:45:57.063Z,2.75
2022-08-10T21:48:57.065Z,2.53
2022-08-10T21:52:00.686Z,2.60
2022-08-10T21:54:54.908Z,3.10
2022-08-10T21:57:48.085Z,2.58
2022-08-10T22:00:49.453Z,2.70
2022-08-10T22:03:39.944Z,3.10
2022-08-10T22:06:27.849Z,2.22
2022-08-10T22:09:20.836Z,2.92
2022-08-10T22:12:10.428Z,2.78
2022-08-10T22:15:16.628Z,2.88
2022-08-10T22:18:05.191Z,2.85
2022-08-10T22:20:56.008Z,2.47
2022-08-10T22:23:42.211Z,2.75
2022-08-10T22:27:01.092Z,2.88
2022-08-10T22:30:09.351Z,2.80
2022-08-10T22:33:07.771Z,2.55
2022-08-10T22:36:12.653Z,2.72
2022-08-10T22:40:05.581Z,2.65
2022-08-10T22:42:59.584Z,2.78
2022-08-10T22:45:47.202Z,2.95
2022-08-10T22:48:33.828Z,2.92
2022-08-10T22:51:28.285Z,2.85
2022-08-10T22:54:31.155Z,2.65
2022-08-10T22:57:19.664Z,2.70
2022-08-10T22:59:49.251Z,3.00
2022-08-10T23:02:28.687Z,2.80
2022-08-10T23:04:58.276Z,3.00
2022-08-10T23:07:30.130Z,2.80
2022-08-10T23:10:08.350Z,2.85
2022-08-10T23:12:44.617Z,3.22
2022-08-10T23:15:38.699Z,2.72
2022-08-10T23:18:27.370Z,2.80
2022-08-10T23:20:56.981Z,3.40
2022-08-10T23:23:26.519Z,3.20
2022-08-10T23:25:56.557Z,3.13
2022-08-10T23:28:39.364Z,3.20
2022-08-10T23:31:15.404Z,2.95
2022-08-10T23:33:45.419Z,3.40
2022-08-10T23:36:33.525Z,2.75
2022-08-10T23:39:25.892Z,3.00
2022-08-10T23:41:54.912Z,3.15
2022-08-10T23:44:23.234Z,3.17
2022-08-10T23:46:51.361Z,3.20
2022-08-10T23:49:19.795Z,3.13
2022-08-10T23:51:56.337Z,3.50
2022-08-10T23:54:26.420Z,3.15
2022-08-10T23:57:00.621Z,3.50
2022-08-10T23:59:32.062Z,3.55
